Hamilton Island Airport
YBHM : now visible

Airfield :











YOU CAN JOIN US ON...

 
LOGIN :

Register | Disclaimer

   EN    FR    IT 

 









Legend :    VFR   Marginal VFR   IFR   Intensive IFR   Very Intensive IFR
Visi :
Ceiling :
>= 8 km
>= 3000ft
5 to 8 km
1000 to 3000 ft
1500m to 5 km
500 to 1000 ft
800 to 1500m
200 to 500 ft
< 800m
< 200 ft
Symbols :   Thunderstorms  Fog  Heavy snow  Heavy precipitations  Wind > 20 kt






- Airport Elevation : 15 ft
- IATA code : HTI


YBHM - Hamilton Island

CURRENT METAR :
  • 061130Z AUTO 17015KT 9999 // SCT006 BKN011 OVC018 19/19 Q1019

EXPIRED METARs :
  • 061100Z AUTO 16014KT 9999 // SCT006 SCT016 BKN022 19/19 Q1019
  • 061030Z AUTO 13023KT 3200 // SCT007 BKN013 BKN020 19/19 Q1019
  • 061025Z AUTO 15022KT 6000 // SCT007 BKN011 BKN020 19/19 Q1019
  • 061000Z AUTO 15021KT 9999 // BKN009 BKN012 BKN017 20/19 Q1019
  • 060942Z AUTO 15020KT 9999 // BKN009 BKN013 BKN017 20/19 Q1019
  • 060930Z AUTO 14023KT 5000 // BKN009 OVC013 OVC019 19/19 Q1019
  • 060900Z AUTO 15024KT 6000 // BKN013 BKN016 OVC024 20/19 Q1018

TAF TAF YBHM
Valid from the 06 at 12:00 until the 07 at 00:00 UTC


061101Z 0612/0700 13018KT 9999 -SHRA BKN012
TEMPO 0612/0700 2000 SHRA BKN008
YBBB FIR / Oceania



MET'MAP, your aeronautical weather chart ! - Copyright ORBIFLY December 2007 - Disclaimer

ORBIFLY MET'MAP TEAM :

Programming & Development : Alexandra Zaïnal
Concept & original design : Baudouin d'Aumeries
Assistance for programming : Marc-Olivier Méhu
Technical & hardware support : Manuel Goepfert

Contact : metmap@orbifly.com




SOURCES & CREDITS :

   NOAA       Earth
Advisory